createdAt,value
2023-01-26T00:01:14.201Z,0.30
2023-01-26T00:03:41.308Z,0.30
2023-01-26T00:06:11.069Z,0.20
2023-01-26T00:08:43.259Z,0.30
2023-01-26T00:11:12.314Z,0.30
2023-01-26T00:13:39.594Z,0.30
2023-01-26T00:16:13.260Z,0.30
2023-01-26T00:18:40.996Z,0.20
2023-01-26T00:21:11.811Z,0.30
2023-01-26T00:23:38.518Z,0.20
2023-01-26T00:26:10.650Z,0.20
2023-01-26T00:28:37.424Z,0.20
2023-01-26T00:31:10.473Z,0.20
2023-01-26T00:33:37.148Z,0.20
2023-01-26T00:36:04.071Z,0.10
2023-01-26T00:38:30.728Z,0.10
2023-01-26T00:40:57.488Z,0.10
2023-01-26T00:43:24.365Z,0.20
2023-01-26T00:45:51.093Z,0.10
2023-01-26T00:48:18.057Z,0.20
2023-01-26T00:50:44.755Z,0.20
2023-01-26T00:53:11.772Z,0.20
2023-01-26T00:55:38.781Z,0.10
2023-01-26T00:58:08.102Z,0.10
2023-01-26T01:00:37.144Z,0.10
2023-01-26T01:03:05.359Z,0.10
2023-01-26T01:05:33.470Z,0.10
2023-01-26T01:08:00.702Z,0.20
2023-01-26T01:10:27.678Z,0.20
2023-01-26T01:12:54.907Z,0.00
2023-01-26T01:15:21.754Z,0.10
2023-01-26T01:17:48.704Z,0.10
2023-01-26T01:20:15.901Z,0.10
2023-01-26T01:22:42.705Z,0.10
2023-01-26T01:25:09.769Z,0.10
2023-01-26T01:27:36.701Z,0.10
2023-01-26T01:30:08.388Z,0.10
2023-01-26T01:32:36.783Z,0.10
2023-01-26T01:35:04.006Z,0.10
2023-01-26T01:37:31.562Z,0.10
2023-01-26T01:39:58.389Z,0.10
2023-01-26T01:42:25.995Z,0.10
2023-01-26T01:45:20.782Z,0.00
2023-01-26T01:47:47.701Z,0.00
2023-01-26T01:50:18.256Z,0.00
2023-01-26T01:52:45.748Z,0.00
2023-01-26T01:55:15.656Z,0.00
2023-01-26T01:57:47.636Z,0.00
2023-01-26T02:00:17.316Z,0.00
2023-01-26T02:03:05.814Z,0.00
2023-01-26T02:05:35.774Z,0.00
2023-01-26T02:08:04.720Z,0.00
2023-01-26T02:10:32.957Z,0.00
2023-01-26T02:13:00.812Z,0.00
2023-01-26T02:15:27.944Z,0.00
2023-01-26T02:17:55.576Z,0.00
2023-01-26T02:21:01.589Z,0.00
2023-01-26T02:23:40.316Z,-0.10
2023-01-26T02:26:16.151Z,-0.10
2023-01-26T02:28:44.782Z,-0.10
2023-01-26T02:31:13.219Z,-0.10
2023-01-26T02:33:40.395Z,-0.10
2023-01-26T02:36:08.641Z,-0.20
2023-01-26T02:38:43.978Z,-0.20
2023-01-26T02:41:34.721Z,-0.20
2023-01-26T02:44:03.586Z,-0.20
2023-01-26T02:46:30.586Z,-0.20
2023-01-26T02:49:16.132Z,-0.10
2023-01-26T02:51:42.906Z,-0.10
2023-01-26T02:54:09.820Z,-0.10
2023-01-26T02:56:42.568Z,-0.10
2023-01-26T02:59:09.424Z,-0.10
2023-01-26T03:01:36.340Z,-0.10
2023-01-26T03:04:03.149Z,-0.10
2023-01-26T03:06:29.927Z,-0.10
2023-01-26T03:08:56.675Z,-0.10
2023-01-26T03:11:23.483Z,-0.10
2023-01-26T03:13:50.250Z,0.00
2023-01-26T03:16:18.633Z,0.00
2023-01-26T03:19:04.007Z,-0.10
2023-01-26T03:21:50.005Z,0.00
2023-01-26T03:24:36.063Z,0.00
2023-01-26T03:27:21.607Z,0.00
2023-01-26T03:29:48.390Z,0.00
2023-01-26T03:32:15.602Z,0.00
2023-01-26T03:34:42.380Z,0.00
2023-01-26T03:37:09.432Z,0.00
2023-01-26T03:39:54.922Z,0.00
2023-01-26T03:42:40.345Z,-0.10
2023-01-26T03:45:25.956Z,0.00
2023-01-26T03:48:11.858Z,-0.10
2023-01-26T03:50:57.492Z,-0.10
2023-01-26T03:53:43.547Z,0.00
2023-01-26T03:56:24.519Z,0.00
2023-01-26T03:58:53.686Z,-0.10
2023-01-26T04:01:26.429Z,0.00
2023-01-26T04:04:14.071Z,-0.10
2023-01-26T04:07:02.425Z,0.00
2023-01-26T04:09:29.663Z,0.00
2023-01-26T04:11:56.487Z,0.00
2023-01-26T04:14:49.493Z,0.00
2023-01-26T04:17:36.964Z,0.00
2023-01-26T04:20:24.008Z,0.00
2023-01-26T04:22:51.041Z,-0.10
2023-01-26T04:25:20.790Z,0.00
2023-01-26T04:27:47.588Z,-0.10
2023-01-26T04:30:16.336Z,0.00
2023-01-26T04:32:43.635Z,-0.10
2023-01-26T04:35:10.933Z,-0.10
2023-01-26T04:37:38.990Z,0.00
2023-01-26T04:40:07.036Z,-0.10
2023-01-26T04:42:33.781Z,-0.10
2023-01-26T04:45:00.691Z,0.00
2023-01-26T04:47:29.314Z,-0.10
2023-01-26T04:49:56.400Z,-0.10
2023-01-26T04:52:23.387Z,-0.10
2023-01-26T04:54:50.672Z,-0.10
2023-01-26T04:57:20.549Z,-0.10
2023-01-26T04:59:47.396Z,0.00
2023-01-26T05:02:14.453Z,0.00
2023-01-26T05:04:41.302Z,0.00
2023-01-26T05:07:08.102Z,0.00
2023-01-26T05:09:34.916Z,0.00
2023-01-26T05:12:21.679Z,0.00
2023-01-26T05:14:48.476Z,-0.10
2023-01-26T05:17:15.254Z,0.00
2023-01-26T05:19:42.243Z,-0.10
2023-01-26T05:22:10.451Z,0.00
2023-01-26T05:24:39.107Z,0.00
2023-01-26T05:27:24.107Z,-0.10
2023-01-26T05:29:51.758Z,-0.10
2023-01-26T05:32:18.909Z,-0.10
2023-01-26T05:34:46.081Z,-0.10
2023-01-26T05:37:14.794Z,-0.10
2023-01-26T05:39:42.222Z,-0.10
2023-01-26T05:42:09.264Z,-0.10
2023-01-26T05:44:36.064Z,-0.10
2023-01-26T05:47:03.063Z,-0.10
2023-01-26T05:49:30.071Z,-0.10
2023-01-26T05:51:57.300Z,-0.10
2023-01-26T05:54:24.134Z,-0.10
2023-01-26T05:56:53.306Z,-0.10
2023-01-26T05:59:20.678Z,-0.10
2023-01-26T06:01:47.800Z,-0.10
2023-01-26T06:04:14.812Z,-0.10
2023-01-26T06:06:41.615Z,-0.10
2023-01-26T06:09:08.525Z,-0.10
2023-01-26T06:11:35.432Z,-0.20
2023-01-26T06:14:02.341Z,-0.10
2023-01-26T06:16:29.539Z,-0.10
2023-01-26T06:18:56.462Z,-0.20
2023-01-26T06:21:23.675Z,-0.10
2023-01-26T06:23:56.629Z,-0.20
2023-01-26T06:26:24.659Z,-0.20
2023-01-26T06:28:53.076Z,-0.30
2023-01-26T06:31:21.080Z,-0.30
2023-01-26T06:33:47.956Z,-0.30
2023-01-26T06:36:15.707Z,-0.30
2023-01-26T06:38:50.918Z,-0.30
2023-01-26T06:41:17.817Z,-0.30
2023-01-26T06:43:46.935Z,-0.30
2023-01-26T06:46:14.341Z,-0.30
2023-01-26T06:48:41.233Z,-0.30
2023-01-26T06:51:16.975Z,-0.30
2023-01-26T06:53:54.748Z,-0.30
2023-01-26T06:56:22.938Z,-0.30
2023-01-26T06:58:49.776Z,-0.20
2023-01-26T07:01:21.996Z,-0.30
2023-01-26T07:03:49.844Z,-0.30
2023-01-26T07:06:16.804Z,-0.40
2023-01-26T07:08:43.764Z,-0.40
2023-01-26T07:11:11.653Z,-0.40
2023-01-26T07:13:39.310Z,-0.40
2023-01-26T07:16:10.253Z,-0.50
2023-01-26T07:18:37.633Z,-0.50
2023-01-26T07:21:06.548Z,-0.50
2023-01-26T07:23:35.031Z,-0.50
2023-01-26T07:26:02.157Z,-0.50
2023-01-26T07:28:30.602Z,-0.50
2023-01-26T07:30:58.758Z,-0.60
2023-01-26T07:33:25.583Z,-0.60
2023-01-26T07:35:59.347Z,-0.60
2023-01-26T07:38:26.638Z,-0.50
2023-01-26T07:40:53.618Z,-0.60
2023-01-26T07:43:20.334Z,-0.60
2023-01-26T07:45:52.739Z,-0.60
2023-01-26T07:48:21.905Z,-0.50
2023-01-26T07:50:49.665Z,-0.60
2023-01-26T07:53:23.154Z,-0.60
2023-01-26T07:55:49.994Z,-0.60
2023-01-26T07:58:18.584Z,-0.60
2023-01-26T08:00:48.501Z,-0.60
2023-01-26T08:03:15.261Z,-0.60
2023-01-26T08:05:43.266Z,-0.60
2023-01-26T08:08:11.340Z,-0.50
2023-01-26T08:10:38.298Z,-0.60
2023-01-26T08:13:05.089Z,-0.60
2023-01-26T08:15:31.897Z,-0.40
2023-01-26T08:17:58.681Z,-0.50
2023-01-26T08:20:25.400Z,-0.60
2023-01-26T08:22:52.281Z,-0.60
2023-01-26T08:25:19.005Z,-0.50
2023-01-26T08:27:45.676Z,-0.50
2023-01-26T08:30:13.872Z,-0.50
2023-01-26T08:32:40.787Z,-0.50
2023-01-26T08:35:07.808Z,-0.50
2023-01-26T08:37:34.495Z,-0.50
2023-01-26T08:40:01.183Z,-0.50
2023-01-26T08:42:28.097Z,-0.40
2023-01-26T08:44:54.974Z,-0.40
2023-01-26T08:47:21.825Z,-0.40
2023-01-26T08:49:48.532Z,-0.40
2023-01-26T08:52:15.347Z,-0.40
2023-01-26T08:54:42.028Z,-0.40
2023-01-26T08:57:08.899Z,-0.50
2023-01-26T08:59:35.592Z,-0.60
2023-01-26T09:02:02.391Z,-0.60
2023-01-26T09:04:29.248Z,-0.60
2023-01-26T09:06:56.098Z,-0.60
2023-01-26T09:09:23.025Z,-0.60
2023-01-26T09:11:49.831Z,-0.60
2023-01-26T09:14:16.560Z,-0.60
2023-01-26T09:16:43.345Z,-0.60
2023-01-26T09:19:10.061Z,-0.50
2023-01-26T09:21:36.719Z,-0.50
2023-01-26T09:24:03.707Z,-0.50
2023-01-26T09:26:31.089Z,-0.50
2023-01-26T09:28:58.208Z,-0.50
2023-01-26T09:31:24.990Z,-0.40
2023-01-26T09:33:51.837Z,-0.50
2023-01-26T09:36:18.896Z,-0.50
2023-01-26T09:38:45.902Z,-0.50
2023-01-26T09:41:21.347Z,-0.50
2023-01-26T09:43:52.561Z,-0.50
2023-01-26T09:46:24.546Z,-0.50
2023-01-26T09:48:57.976Z,-0.50
2023-01-26T09:51:38.904Z,-0.40
2023-01-26T09:54:17.110Z,-0.40
2023-01-26T09:56:44.883Z,-0.50
2023-01-26T09:59:39.633Z,-0.50
2023-01-26T10:02:43.841Z,-0.50
2023-01-26T10:05:49.419Z,-0.50
2023-01-26T10:08:19.737Z,-0.50
2023-01-26T10:10:53.935Z,-0.50
2023-01-26T10:13:22.582Z,-0.50
2023-01-26T10:16:01.909Z,-0.50
2023-01-26T10:18:37.261Z,-0.50
2023-01-26T10:21:05.552Z,-0.50
2023-01-26T10:23:34.210Z,-0.50
2023-01-26T10:26:29.916Z,-0.50
2023-01-26T10:28:56.866Z,-0.50
2023-01-26T10:31:34.548Z,-0.50
2023-01-26T10:34:09.456Z,-0.50
2023-01-26T10:36:36.255Z,-0.50
2023-01-26T10:39:12.535Z,-0.50
2023-01-26T10:41:41.144Z,-0.50
2023-01-26T10:44:30.139Z,-0.50
2023-01-26T10:47:16.409Z,-0.50
2023-01-26T10:49:43.785Z,-0.50
2023-01-26T10:52:27.866Z,-0.50
2023-01-26T10:55:21.141Z,-0.50
2023-01-26T10:57:48.053Z,-0.50
2023-01-26T11:00:30.165Z,-0.50
2023-01-26T11:03:17.467Z,-0.50
2023-01-26T11:05:47.993Z,-0.60
2023-01-26T11:08:36.045Z,-0.60
2023-01-26T11:11:04.313Z,-0.60
2023-01-26T11:13:31.075Z,-0.60
2023-01-26T11:16:07.179Z,-0.50
2023-01-26T11:18:46.148Z,-0.50
2023-01-26T11:21:12.912Z,-0.40
2023-01-26T11:23:51.312Z,-0.50
2023-01-26T11:26:42.443Z,-0.50
2023-01-26T11:29:28.935Z,-0.50
2023-01-26T11:32:17.456Z,-0.50
2023-01-26T11:34:47.082Z,-0.50
2023-01-26T11:37:40.486Z,-0.50
2023-01-26T11:40:25.165Z,-0.60
2023-01-26T11:42:54.813Z,-0.60
2023-01-26T11:45:38.976Z,-0.60
2023-01-26T11:48:22.872Z,-0.70
2023-01-26T11:50:56.515Z,-0.70
2023-01-26T11:53:34.266Z,-0.70
2023-01-26T11:56:09.760Z,-0.70
2023-01-26T11:58:45.771Z,-0.70
2023-01-26T12:01:44.482Z,-0.70
2023-01-26T12:04:22.601Z,-0.70
2023-01-26T12:06:58.004Z,-0.70
2023-01-26T12:09:38.618Z,-0.70
2023-01-26T12:12:16.684Z,-0.70
2023-01-26T12:15:04.306Z,-0.70
2023-01-26T12:17:58.438Z,-0.70
2023-01-26T12:20:53.423Z,-0.60
2023-01-26T12:23:42.931Z,-0.60
2023-01-26T12:26:18.607Z,-0.70
2023-01-26T12:28:50.703Z,-0.60
2023-01-26T12:31:23.841Z,-0.70
2023-01-26T12:33:54.441Z,-0.70
2023-01-26T12:36:51.871Z,-0.80
2023-01-26T12:39:37.415Z,-0.70
2023-01-26T12:42:13.898Z,-0.70
2023-01-26T12:44:43.124Z,-0.70
2023-01-26T12:47:12.627Z,-0.80
2023-01-26T12:49:49.139Z,-0.80
2023-01-26T12:52:26.404Z,-0.80
2023-01-26T12:55:26.392Z,-0.80
2023-01-26T12:58:05.554Z,-0.80
2023-01-26T13:00:35.213Z,-0.80
2023-01-26T13:03:29.824Z,-0.80
2023-01-26T13:06:00.457Z,-0.70
2023-01-26T13:08:33.236Z,-0.90
2023-01-26T13:11:12.429Z,-0.90
2023-01-26T13:13:57.975Z,-0.80
2023-01-26T13:16:33.197Z,-0.80
2023-01-26T13:19:02.720Z,-0.90
2023-01-26T13:21:44.630Z,-0.80
2023-01-26T13:24:17.611Z,-0.80
2023-01-26T13:26:45.603Z,-0.90
2023-01-26T13:29:28.278Z,-0.80
2023-01-26T13:31:57.455Z,-0.80
2023-01-26T13:34:32.541Z,-0.80
2023-01-26T13:37:24.350Z,-0.80
2023-01-26T13:40:31.337Z,-0.80
2023-01-26T13:43:35.315Z,-0.80
2023-01-26T13:46:10.849Z,-0.70
2023-01-26T13:48:48.405Z,-0.70
2023-01-26T13:51:27.524Z,-0.70
2023-01-26T13:54:08.919Z,-0.90
2023-01-26T13:56:39.573Z,-0.80
2023-01-26T13:59:16.562Z,-0.80
2023-01-26T14:01:49.567Z,-0.80
2023-01-26T14:04:21.408Z,-0.80
2023-01-26T14:07:12.791Z,-0.70
2023-01-26T14:09:51.419Z,-0.70
2023-01-26T14:12:25.311Z,-0.70
2023-01-26T14:15:02.049Z,-0.70
2023-01-26T14:17:33.009Z,-0.80
2023-01-26T14:20:01.501Z,-0.70
2023-01-26T14:22:28.433Z,-0.70
2023-01-26T14:24:55.986Z,-0.80
2023-01-26T14:27:42.508Z,-0.70
2023-01-26T14:30:28.288Z,-0.70
2023-01-26T14:33:02.345Z,-0.80
2023-01-26T14:35:29.183Z,-0.80
2023-01-26T14:38:12.850Z,-0.80
2023-01-26T14:40:51.173Z,-0.80
2023-01-26T14:43:18.724Z,-0.70
2023-01-26T14:45:56.126Z,-0.70
2023-01-26T14:48:31.593Z,-0.70
2023-01-26T14:51:00.014Z,-0.80
2023-01-26T14:53:27.680Z,-0.80
2023-01-26T14:55:54.811Z,-0.80
2023-01-26T14:58:21.668Z,-0.80
2023-01-26T15:00:50.322Z,-0.80
2023-01-26T15:03:30.034Z,-0.90
2023-01-26T15:06:13.847Z,-0.80
2023-01-26T15:08:51.862Z,-0.80
2023-01-26T15:11:47.797Z,-0.80
2023-01-26T15:14:46.402Z,-0.80
2023-01-26T15:17:42.419Z,-0.80
2023-01-26T15:20:33.398Z,-0.80
2023-01-26T15:23:00.407Z,-0.90
2023-01-26T15:25:29.842Z,-0.90
2023-01-26T15:27:58.950Z,-0.80
2023-01-26T15:30:33.019Z,-0.90
2023-01-26T15:33:01.055Z,-0.80
2023-01-26T15:35:37.195Z,-0.80
2023-01-26T15:38:12.979Z,-0.90
2023-01-26T15:40:40.236Z,-0.80
2023-01-26T15:43:13.942Z,-0.80
2023-01-26T15:45:43.833Z,-0.80
2023-01-26T15:48:11.263Z,-0.80
2023-01-26T15:50:38.186Z,-0.80
2023-01-26T15:53:05.151Z,-0.70
2023-01-26T15:55:33.434Z,-0.80
2023-01-26T15:58:01.071Z,-0.80
2023-01-26T16:00:27.989Z,-0.80
2023-01-26T16:02:55.187Z,-0.80
2023-01-26T16:05:27.159Z,-0.80
2023-01-26T16:07:57.064Z,-0.80
2023-01-26T16:10:27.065Z,-0.90
2023-01-26T16:12:54.087Z,-0.90
2023-01-26T16:15:28.293Z,-0.90
2023-01-26T16:17:55.195Z,-0.90
2023-01-26T16:20:25.209Z,-0.90
2023-01-26T16:22:54.450Z,-0.90
2023-01-26T16:25:30.616Z,-0.90
2023-01-26T16:28:00.917Z,-0.90
2023-01-26T16:30:28.150Z,-0.90
2023-01-26T16:32:55.618Z,-0.90
2023-01-26T16:35:29.171Z,-0.90
2023-01-26T16:37:56.162Z,-0.90
2023-01-26T16:40:23.464Z,-0.90
2023-01-26T16:42:55.238Z,-0.90
2023-01-26T16:45:29.804Z,-0.90
2023-01-26T16:47:57.582Z,-1.00
2023-01-26T16:50:26.311Z,-0.90
2023-01-26T16:52:53.499Z,-0.80
2023-01-26T16:55:20.444Z,-0.90
2023-01-26T16:57:50.118Z,-0.90
2023-01-26T17:00:21.053Z,-0.90
2023-01-26T17:02:51.487Z,-0.90
2023-01-26T17:12:22.259Z,-0.70
2023-01-26T17:14:51.008Z,-0.80
2023-01-26T17:17:18.051Z,-0.80
2023-01-26T17:19:49.831Z,-0.80
2023-01-26T17:22:19.905Z,-0.80
2023-01-26T17:24:49.037Z,-0.80
2023-01-26T17:27:16.052Z,-0.90
2023-01-26T17:29:43.104Z,-0.80
2023-01-26T17:32:11.610Z,-0.80
2023-01-26T17:37:29.069Z,-0.80
2023-01-26T17:39:56.270Z,-0.70
2023-01-26T17:42:23.087Z,-0.70
2023-01-26T17:44:49.747Z,-0.60
2023-01-26T17:47:16.427Z,-0.60
2023-01-26T17:49:43.112Z,-0.60
2023-01-26T17:52:12.358Z,-0.60
2023-01-26T17:54:39.949Z,-0.60
2023-01-26T17:57:06.884Z,-0.60
2023-01-26T17:59:33.777Z,-0.60
2023-01-26T18:02:00.614Z,-0.60
2023-01-26T18:04:27.376Z,-0.60
2023-01-26T18:06:54.104Z,-0.60
2023-01-26T18:09:20.934Z,-0.50
2023-01-26T18:11:48.558Z,-0.60
2023-01-26T18:14:15.768Z,-0.60
2023-01-26T18:16:42.589Z,-0.60
2023-01-26T18:19:09.567Z,-0.50
2023-01-26T18:21:36.933Z,-0.60
2023-01-26T18:24:05.694Z,-0.60
2023-01-26T18:26:36.184Z,-0.60
2023-01-26T18:29:05.098Z,-0.60
2023-01-26T18:31:37.386Z,-0.70
2023-01-26T18:34:04.734Z,-0.70
2023-01-26T18:36:32.059Z,-0.70
2023-01-26T18:39:01.353Z,-0.70
2023-01-26T18:41:30.584Z,-0.70
2023-01-26T18:44:00.632Z,-0.70
2023-01-26T18:46:28.294Z,-0.80
2023-01-26T18:49:00.632Z,-0.80
2023-01-26T18:51:29.843Z,-0.80
2023-01-26T18:53:57.365Z,-0.80
2023-01-26T18:56:24.399Z,-0.70
2023-01-26T18:58:54.941Z,-0.70
2023-01-26T19:01:22.856Z,-0.80
2023-01-26T19:03:54.817Z,-0.70
2023-01-26T19:06:23.622Z,-0.70
2023-01-26T19:08:59.390Z,-0.80
2023-01-26T19:11:28.398Z,-0.70
2023-01-26T19:13:55.578Z,-0.80
2023-01-26T19:16:24.845Z,-0.80
2023-01-26T19:18:52.275Z,-0.80
2023-01-26T19:21:24.648Z,-0.80
2023-01-26T19:23:54.014Z,-0.80
2023-01-26T19:26:25.481Z,-0.80
2023-01-26T19:28:53.814Z,-0.80
2023-01-26T19:31:21.484Z,-0.80
2023-01-26T19:33:52.883Z,-0.90
2023-01-26T19:36:21.702Z,-0.90
2023-01-26T19:38:48.587Z,-0.90
2023-01-26T19:41:16.381Z,-1.00
2023-01-26T19:43:44.332Z,-1.00
2023-01-26T19:46:13.126Z,-1.00
2023-01-26T19:48:40.623Z,-1.00
2023-01-26T19:51:12.610Z,-1.00
2023-01-26T19:53:43.893Z,-1.00
2023-01-26T19:56:13.756Z,-1.00
2023-01-26T19:58:40.933Z,-1.10
2023-01-26T20:01:10.075Z,-1.10
2023-01-26T20:03:37.692Z,-1.10
2023-01-26T20:06:05.770Z,-1.10
2023-01-26T20:08:32.947Z,-1.10
2023-01-26T20:11:08.368Z,-1.10
2023-01-26T20:13:36.036Z,-1.10
2023-01-26T20:16:04.210Z,-1.10
2023-01-26T20:18:31.056Z,-1.10
2023-01-26T20:21:00.707Z,-1.20
2023-01-26T20:23:27.997Z,-1.20
2023-01-26T20:26:08.991Z,-1.20
2023-01-26T20:28:37.792Z,-1.20
2023-01-26T20:31:15.590Z,-1.10
2023-01-26T20:33:43.846Z,-1.20
2023-01-26T20:36:17.011Z,-1.10
2023-01-26T20:38:44.356Z,-1.20
2023-01-26T20:41:14.905Z,-1.10
2023-01-26T20:43:58.105Z,-1.20
2023-01-26T20:46:28.051Z,-1.20
2023-01-26T20:48:55.655Z,-1.10
2023-01-26T20:51:26.880Z,-1.20
2023-01-26T20:53:53.688Z,-1.20
2023-01-26T20:56:21.881Z,-1.20
2023-01-26T20:58:48.694Z,-1.20
2023-01-26T21:01:16.782Z,-1.30
2023-01-26T21:03:43.892Z,-1.30
2023-01-26T21:06:14.037Z,-1.30
2023-01-26T21:08:41.073Z,-1.30
2023-01-26T21:11:11.522Z,-1.30
2023-01-26T21:13:41.200Z,-1.30
2023-01-26T21:16:09.117Z,-1.30
2023-01-26T21:18:35.934Z,-1.30
2023-01-26T21:21:05.395Z,-1.30
2023-01-26T21:23:33.609Z,-1.40
2023-01-26T21:26:02.426Z,-1.40
2023-01-26T21:28:29.748Z,-1.40
2023-01-26T21:31:03.395Z,-1.40
2023-01-26T21:33:31.326Z,-1.40
2023-01-26T21:36:03.389Z,-1.40
2023-01-26T21:38:36.685Z,-1.40
2023-01-26T21:41:30.400Z,-1.40
2023-01-26T21:44:02.519Z,-1.40
2023-01-26T21:46:30.644Z,-1.40
2023-01-26T21:48:57.800Z,-1.50
2023-01-26T21:51:44.605Z,-1.50
2023-01-26T21:54:12.705Z,-1.40
2023-01-26T21:56:39.732Z,-1.40
2023-01-26T21:59:08.536Z,-1.40
2023-01-26T22:01:40.508Z,-1.50
2023-01-26T22:04:10.457Z,-1.40
2023-01-26T22:06:37.911Z,-1.40
2023-01-26T22:09:05.965Z,-1.40
2023-01-26T22:11:33.464Z,-1.50
2023-01-26T22:14:00.709Z,-1.40
2023-01-26T22:16:28.206Z,-1.40
2023-01-26T22:18:55.041Z,-1.50
2023-01-26T22:21:22.104Z,-1.40
2023-01-26T22:23:49.059Z,-1.40
2023-01-26T22:26:19.597Z,-1.50
2023-01-26T22:28:54.182Z,-1.50
2023-01-26T22:31:25.296Z,-1.50
2023-01-26T22:33:55.840Z,-1.40
2023-01-26T22:36:23.725Z,-1.50
2023-01-26T22:38:51.182Z,-1.50
2023-01-26T22:41:30.193Z,-1.50
2023-01-26T22:43:59.358Z,-1.50
2023-01-26T22:46:28.353Z,-1.50
2023-01-26T22:48:57.240Z,-1.50
2023-01-26T22:51:26.393Z,-1.50
2023-01-26T22:53:54.506Z,-1.50
2023-01-26T22:56:22.264Z,-1.50
2023-01-26T22:58:59.545Z,-1.50
2023-01-26T23:01:28.901Z,-1.50
2023-01-26T23:03:56.463Z,-1.50
2023-01-26T23:06:24.263Z,-1.50
2023-01-26T23:08:51.047Z,-1.60
2023-01-26T23:11:29.168Z,-1.60
2023-01-26T23:13:57.860Z,-1.60
2023-01-26T23:16:25.679Z,-1.60
2023-01-26T23:18:54.700Z,-1.50
2023-01-26T23:21:21.626Z,-1.60
2023-01-26T23:23:48.496Z,-1.50
2023-01-26T23:26:16.584Z,-1.60
2023-01-26T23:28:44.713Z,-1.50
2023-01-26T23:31:13.107Z,-1.50
2023-01-26T23:33:40.445Z,-1.50
2023-01-26T23:36:09.478Z,-1.50
2023-01-26T23:38:36.764Z,-1.60
2023-01-26T23:41:05.597Z,-1.60
2023-01-26T23:43:32.345Z,-1.60
2023-01-26T23:45:59.084Z,-1.60
2023-01-26T23:48:26.504Z,-1.50
2023-01-26T23:51:00.279Z,-1.60
2023-01-26T23:53:28.109Z,-1.60
2023-01-26T23:55:54.994Z,-1.60
2023-01-26T23:58:21.673Z,-1.60
